Time;durP1;ratioP1;P1;durP2;ratioP2;P2;SDS_P1;SDS_P2;PMS_P1;PMS_P2;Temp;Humidity;BMP_temperature;BMP_pressure;BME280_temperature;BME280_humidity;BME280_pressure;Samples;Min_cycle;Max_cycle;Signal;HPM_P1;HPM_P2
2023/10/26 00:01:26;;;;;;;;;;;;;;;;;;136597;1284;22495;-82
2023/10/26 00:04:28;;;;;;;;;;;;;;;;;;135969;1284;22527;-83
2023/10/26 00:07:31;;;;;;;;;;;;;;;;;;135933;1284;22555;-82
2023/10/26 00:10:33;;;;;;;;;;;;;;;;;;136439;1284;22534;-81
2023/10/26 00:13:36;;;;;;;;;;;;;;;;;;136842;1276;22494;-81
2023/10/26 00:16:38;;;;;;;;;;;;;;;;;;136693;1276;22493;-82
2023/10/26 00:19:41;;;;;;;;;;;;;;;;;;136903;1276;25902;-82
2023/10/26 00:22:43;;;;;;;;;;;;;;;;;;137048;1276;22626;-81
2023/10/26 00:25:46;;;;;;;;;;;;;;;;;;136697;1276;22522;-81
2023/10/26 00:28:48;;;;;;;;;;;;;;;;;;136597;1276;22512;-81
2023/10/26 00:31:50;;;;;;;;;;;;;;;;;;137302;1276;22528;-81
2023/10/26 00:34:53;;;;;;;;;;;;;;;;;;136716;1276;22543;-82
2023/10/26 00:37:55;;;;;;;;;;;;;;;;;;136649;1276;22529;-82
2023/10/26 00:40:58;;;;;;;;;;;;;;;;;;137148;1276;22552;-83
2023/10/26 00:44:00;;;;;;;;;;;;;;;;;;137017;1273;22532;-82
2023/10/26 00:47:03;;;;;;;;;;;;;;;;;;136926;1273;22578;-81
2023/10/26 00:50:05;;;;;;;;;;;;;;;;;;137219;1273;22585;-81
2023/10/26 00:53:07;;;;;;;;;;;;;;;;;;137260;1273;23555;-81
2023/10/26 00:56:10;;;;;;;;;;;;;;;;;;137230;1273;22559;-80
2023/10/26 00:59:12;;;;;;;;;;;;;;;;;;136995;1273;22512;-79
2023/10/26 01:02:15;;;;;;;;;;;;;;;;;;137507;1273;22588;-80
2023/10/26 01:05:17;;;;;;;;;;;;;;;;;;136855;1273;22914;-80
2023/10/26 01:08:20;;;;;;;;;;;;;;;;;;136812;1273;23133;-80
2023/10/26 01:11:22;;;;;;;;;;;;;;;;;;137533;1273;22735;-80
2023/10/26 01:14:27;;;;;;;;;;;;;;;;;;136966;1267;22511;-81
2023/10/26 01:17:29;;;;;;;;;;;;;;;;;;136894;1273;22573;-80
2023/10/26 01:20:32;;;;;;;;;;;;;;;;;;137238;1273;22524;-79
2023/10/26 01:23:34;;;;;;;;;;;;;;;;;;137202;1273;22528;-80
2023/10/26 01:26:37;;;;;;;;;;;;;;;;;;136944;1273;22571;-80
2023/10/26 01:29:39;;;;;;;;;;;;;;;;;;137089;1273;24967;-79
2023/10/26 01:32:42;;;;;;;;;;;;;;;;;;137479;1273;22517;-82
2023/10/26 01:35:45;;;;;;;;;;;;;;;;;;137155;1273;22538;-81
2023/10/26 01:38:48;;;;;;;;;;;;;;;;;;137244;1273;24885;-80
2023/10/26 01:41:51;;;;;;;;;;;;;;;;;;137672;1273;22929;-80
2023/10/26 01:44:53;;;;;;;;;;;;;;;;;;137209;1273;22492;-80
2023/10/26 01:47:56;;;;;;;;;;;;;;;;;;137126;1273;22532;-80
2023/10/26 01:50:58;;;;;;;;;;;;;;;;;;137267;1273;22484;-77
2023/10/26 01:54:01;;;;;;;;;;;;;;;;;;137327;1273;22599;-79
2023/10/26 01:57:03;;;;;;;;;;;;;;;;;;137052;1273;22537;-80
2023/10/26 02:00:06;;;;;;;;;;;;;;;;;;137030;1273;22568;-80
2023/10/26 02:03:08;;;;;;;;;;;;;;;;;;137479;1273;24176;-81
2023/10/26 02:06:11;;;;;;;;;;;;;;;;;;137377;1273;22490;-80
2023/10/26 02:09:13;;;;;;;;;;;;;;;;;;137346;1273;22568;-83
2023/10/26 02:12:16;;;;;;;;;;;;;;;;;;137437;1269;22514;-81
2023/10/26 02:15:18;;;;;;;;;;;;;;;;;;137508;1273;22492;-80
2023/10/26 02:18:21;;;;;;;;;;;;;;;;;;137554;1273;22396;-81
2023/10/26 02:21:23;;;;;;;;;;;;;;;;;;137582;1272;22996;-80
2023/10/26 02:24:25;;;;;;;;;;;;;;;;;;137699;1272;22736;-80
2023/10/26 02:27:28;;;;;;;;;;;;;;;;;;137563;1272;22503;-81
2023/10/26 02:30:30;;;;;;;;;;;;;;;;;;137529;1272;22503;-80
2023/10/26 02:33:33;;;;;;;;;;;;;;;;;;137450;1272;23003;-80
2023/10/26 02:36:35;;;;;;;;;;;;;;;;;;137602;1272;22511;-81
2023/10/26 02:39:40;;;;;;;;;;;;;;;;;;137612;1272;22519;-80
2023/10/26 02:42:43;;;;;;;;;;;;;;;;;;137628;1272;22520;-79
2023/10/26 02:45:51;;;;;;;;;;;;;;;;;;137616;1272;22925;-79
2023/10/26 02:48:54;;;;;;;;;;;;;;;;;;137606;1272;22499;-79
2023/10/26 02:51:56;;;;;;;;;;;;;;;;;;137621;1272;22413;-79
2023/10/26 02:54:59;;;;;;;;;;;;;;;;;;137561;1272;22626;-79
2023/10/26 02:58:01;;;;;;;;;;;;;;;;;;137544;1272;22894;-80
2023/10/26 03:01:03;;;;;;;;;;;;;;;;;;137643;1272;23630;-78
2023/10/26 03:04:08;;;;;;;;;;;;;;;;;;137636;1272;22909;-80
2023/10/26 03:07:11;;;;;;;;;;;;;;;;;;137646;1272;22291;-79
2023/10/26 03:10:13;;;;;;;;;;;;;;;;;;137639;1272;22371;-78
2023/10/26 03:13:16;;;;;;;;;;;;;;;;;;137476;1272;22878;-79
2023/10/26 03:16:18;;;;;;;;;;;;;;;;;;137680;1272;22785;-81
2023/10/26 03:19:21;;;;;;;;;;;;;;;;;;137576;1272;22548;-80
2023/10/26 03:22:23;;;;;;;;;;;;;;;;;;137649;1272;22558;-81
2023/10/26 03:25:25;;;;;;;;;;;;;;;;;;137577;1272;23007;-80
2023/10/26 03:28:28;;;;;;;;;;;;;;;;;;137563;1272;22566;-80
2023/10/26 03:31:31;;;;;;;;;;;;;;;;;;137480;1272;22859;-82
2023/10/26 03:34:33;;;;;;;;;;;;;;;;;;137590;1272;22410;-81
2023/10/26 03:37:36;;;;;;;;;;;;;;;;;;137591;1272;22269;-79
2023/10/26 03:40:39;;;;;;;;;;;;;;;;;;137473;1272;22809;-79
2023/10/26 03:43:41;;;;;;;;;;;;;;;;;;137613;1272;22362;-78
2023/10/26 03:46:44;;;;;;;;;;;;;;;;;;137617;1272;22402;-80
2023/10/26 03:49:46;;;;;;;;;;;;;;;;;;137636;1272;22341;-79
2023/10/26 03:52:49;;;;;;;;;;;;;;;;;;137511;1272;22523;-79
2023/10/26 03:55:51;;;;;;;;;;;;;;;;;;137615;1272;23032;-82
2023/10/26 03:58:54;;;;;;;;;;;;;;;;;;137636;1272;22495;-79
2023/10/26 04:01:56;;;;;;;;;;;;;;;;;;137576;1272;22421;-80
2023/10/26 04:04:58;;;;;;;;;;;;;;;;;;137457;1270;22960;-79
2023/10/26 04:08:02;;;;;;;;;;;;;;;;;;137593;1272;22378;-79
2023/10/26 04:11:04;;;;;;;;;;;;;;;;;;137623;1272;22746;-78
2023/10/26 04:14:07;;;;;;;;;;;;;;;;;;137613;1272;22323;-79
2023/10/26 04:17:12;;;;;;;;;;;;;;;;;;137593;1272;22352;-79
2023/10/26 04:20:14;;;;;;;;;;;;;;;;;;137545;1272;22359;-78
2023/10/26 04:23:17;;;;;;;;;;;;;;;;;;137506;1272;22348;-78
2023/10/26 04:26:19;;;;;;;;;;;;;;;;;;137529;1272;22327;-79
2023/10/26 04:29:22;;;;;;;;;;;;;;;;;;137530;1272;22315;-79
2023/10/26 04:32:24;;;;;;;;;;;;;;;;;;137521;1272;22391;-78
2023/10/26 04:35:27;;;;;;;;;;;;;;;;;;137547;1272;22300;-79
2023/10/26 04:38:29;;;;;;;;;;;;;;;;;;137574;1272;22313;-82
2023/10/26 04:41:33;;;;;;;;;;;;;;;;;;137609;1272;22342;-81
2023/10/26 04:44:36;;;;;;;;;;;;;;;;;;137622;1272;22293;-80
2023/10/26 04:47:39;;;;;;;;;;;;;;;;;;137647;1272;22354;-81
2023/10/26 04:50:41;;;;;;;;;;;;;;;;;;137618;1272;22863;-81
2023/10/26 04:53:44;;;;;;;;;;;;;;;;;;137545;1272;22642;-81
2023/10/26 04:56:46;;;;;;;;;;;;;;;;;;137573;1272;23193;-79
2023/10/26 04:59:49;;;;;;;;;;;;;;;;;;137649;1272;22335;-82
2023/10/26 05:02:53;;;;;;;;;;;;;;;;;;137638;1272;22888;-80
2023/10/26 05:05:55;;;;;;;;;;;;;;;;;;137631;1272;22333;-81
2023/10/26 05:08:58;;;;;;;;;;;;;;;;;;137523;1258;22695;-81
2023/10/26 05:12:00;;;;;;;;;;;;;;;;;;137391;1272;22539;-80
2023/10/26 05:15:03;;;;;;;;;;;;;;;;;;137435;1272;22595;-81
2023/10/26 05:18:06;;;;;;;;;;;;;;;;;;137639;1272;22260;-82
2023/10/26 05:21:08;;;;;;;;;;;;;;;;;;137653;1272;22377;-82
2023/10/26 05:24:11;;;;;;;;;;;;;;;;;;137612;1272;22399;-81
2023/10/26 05:27:13;;;;;;;;;;;;;;;;;;137485;1272;22470;-81
2023/10/26 05:30:16;;;;;;;;;;;;;;;;;;137616;1272;22310;-79
2023/10/26 05:33:18;;;;;;;;;;;;;;;;;;137632;1272;22430;-80
2023/10/26 05:36:21;;;;;;;;;;;;;;;;;;137623;1272;22908;-80
2023/10/26 05:39:24;;;;;;;;;;;;;;;;;;137625;1272;22873;-80
2023/10/26 05:42:26;;;;;;;;;;;;;;;;;;137657;1272;22382;-80
2023/10/26 05:45:29;;;;;;;;;;;;;;;;;;137589;1272;22293;-79
2023/10/26 05:48:33;;;;;;;;;;;;;;;;;;137581;1272;22420;-80
2023/10/26 05:51:36;;;;;;;;;;;;;;;;;;137557;1272;22347;-79
2023/10/26 05:54:38;;;;;;;;;;;;;;;;;;137580;1272;22343;-79
2023/10/26 05:57:41;;;;;;;;;;;;;;;;;;137542;1272;22366;-79
2023/10/26 06:00:43;;;;;;;;;;;;;;;;;;137648;1272;22957;-79
2023/10/26 06:03:46;;;;;;;;;;;;;;;;;;137476;1272;22538;-80
2023/10/26 06:06:48;;;;;;;;;;;;;;;;;;137631;1272;22338;-80
2023/10/26 06:09:53;;;;;;;;;;;;;;;;;;137561;1272;22958;-79
2023/10/26 06:12:56;;;;;;;;;;;;;;;;;;137547;1265;22526;-81
2023/10/26 06:16:06;;;;;;;;;;;;;;;;;;137596;1272;22281;-79
2023/10/26 06:19:11;;;;;;;;;;;;;;;;;;137513;1272;22496;-80
2023/10/26 06:22:13;;;;;;;;;;;;;;;;;;137600;1272;22315;-79
2023/10/26 06:25:16;;;;;;;;;;;;;;;;;;137631;1272;22357;-79
2023/10/26 06:28:18;;;;;;;;;;;;;;;;;;137566;1272;23101;-80
2023/10/26 06:31:21;;;;;;;;;;;;;;;;;;137627;1272;22856;-80
2023/10/26 06:34:24;;;;;;;;;;;;;;;;;;137646;1272;22419;-79
2023/10/26 06:37:28;;;;;;;;;;;;;;;;;;137444;1272;23005;-81
2023/10/26 06:40:30;;;;;;;;;;;;;;;;;;137376;1272;22515;-81
2023/10/26 06:43:33;;;;;;;;;;;;;;;;;;137442;1272;22523;-80
2023/10/26 06:46:35;;;;;;;;;;;;;;;;;;137555;1272;22483;-81
2023/10/26 06:49:41;;;;;;;;;;;;;;;;;;137501;1272;22498;-81
2023/10/26 06:52:43;;;;;;;;;;;;;;;;;;137651;1272;22321;-80
2023/10/26 06:55:46;;;;;;;;;;;;;;;;;;137598;1272;22843;-80
2023/10/26 06:58:48;;;;;;;;;;;;;;;;;;137562;1266;22403;-79
2023/10/26 07:01:52;;;;;;;;;;;;;;;;;;137622;1272;22401;-81
2023/10/26 07:04:55;;;;;;;;;;;;;;;;;;137537;1272;22482;-81
2023/10/26 07:07:59;;;;;;;;;;;;;;;;;;137587;1265;22283;-81
2023/10/26 07:11:02;;;;;;;;;;;;;;;;;;137582;1272;22328;-79
2023/10/26 07:14:04;;;;;;;;;;;;;;;;;;137596;1265;22441;-80
2023/10/26 07:17:07;;;;;;;;;;;;;;;;;;137543;1272;22558;-80
2023/10/26 07:20:10;;;;;;;;;;;;;;;;;;137457;1272;22579;-81
2023/10/26 07:23:12;;;;;;;;;;;;;;;;;;137560;1265;22323;-80
2023/10/26 07:26:14;;;;;;;;;;;;;;;;;;137623;1272;22865;-80
2023/10/26 07:29:17;;;;;;;;;;;;;;;;;;137637;1272;22360;-80
2023/10/26 07:32:20;;;;;;;;;;;;;;;;;;137335;1272;22525;-81
2023/10/26 07:35:22;;;;;;;;;;;;;;;;;;137597;1272;22346;-80
2023/10/26 07:38:25;;;;;;;;;;;;;;;;;;137615;1272;22285;-82
2023/10/26 07:41:28;;;;;;;;;;;;;;;;;;137616;1272;22414;-81
2023/10/26 07:44:33;;;;;;;;;;;;;;;;;;137595;1272;22331;-79
2023/10/26 07:47:35;;;;;;;;;;;;;;;;;;137455;1272;22422;-80
2023/10/26 07:50:41;;;;;;;;;;;;;;;;;;137570;1272;22414;-79
2023/10/26 07:53:51;;;;;;;;;;;;;;;;;;137572;1272;22364;-80
2023/10/26 07:56:53;;;;;;;;;;;;;;;;;;137587;1272;22325;-79
2023/10/26 07:59:56;;;;;;;;;;;;;;;;;;137580;1272;22452;-79
2023/10/26 08:03:00;;;;;;;;;;;;;;;;;;137400;1272;22455;-80
2023/10/26 08:06:03;;;;;;;;;;;;;;;;;;137535;1272;22914;-79
2023/10/26 08:09:05;;;;;;;;;;;;;;;;;;137414;1272;22490;-79
2023/10/26 08:12:10;;;;;;;;;;;;;;;;;;137501;1272;22620;-80
2023/10/26 08:15:13;;;;;;;;;;;;;;;;;;137449;1272;22480;-80
2023/10/26 08:18:15;;;;;;;;;;;;;;;;;;137610;1267;22958;-79
2023/10/26 08:21:18;;;;;;;;;;;;;;;;;;137618;1272;22349;-80
2023/10/26 08:24:21;;;;;;;;;;;;;;;;;;137531;1272;22512;-79
2023/10/26 08:27:23;;;;;;;;;;;;;;;;;;137518;1272;22722;-79
2023/10/26 08:30:26;;;;;;;;;;;;;;;;;;137595;1272;22232;-79
2023/10/26 08:33:28;;;;;;;;;;;;;;;;;;137565;1265;22262;-79
2023/10/26 08:36:31;;;;;;;;;;;;;;;;;;137649;1272;22305;-78
2023/10/26 08:39:34;;;;;;;;;;;;;;;;;;137580;1272;22348;-80
2023/10/26 08:42:36;;;;;;;;;;;;;;;;;;137614;1272;22827;-80
2023/10/26 08:45:39;;;;;;;;;;;;;;;;;;137453;1272;22469;-79
2023/10/26 08:48:44;;;;;;;;;;;;;;;;;;137553;1272;22352;-80
2023/10/26 09:22:46;;;;;;;;;;;;;;;;;;133340;1308;544320;-78
2023/10/26 09:25:48;;;;;;;;;;;;;;;;;;136606;1284;22283;-80
2023/10/26 09:28:51;;;;;;;;;;;;;;;;;;136590;1273;22307;-78
2023/10/26 09:31:56;;;;;;;;;;;;;;;;;;136600;1284;22291;-78
2023/10/26 09:35:01;;;;;;;;;;;;;;;;;;135188;1282;166297;-79
2023/10/26 09:38:04;;;;;;;;;;;;;;;;;;136570;1282;23129;-79
2023/10/26 09:41:10;;;;;;;;;;;;;;;;;;136592;1277;22493;-79
2023/10/26 09:44:13;;;;;;;;;;;;;;;;;;135547;1282;22579;-79
2023/10/26 09:47:16;;;;;;;;;;;;;;;;;;135856;1282;22614;-78
2023/10/26 09:50:21;;;;;;;;;;;;;;;;;;136523;1282;23566;-79
2023/10/26 09:53:23;;;;;;;;;;;;;;;;;;136759;1282;22355;-80
2023/10/26 09:56:26;;;;;;;;;;;;;;;;;;136752;1282;22323;-80
2023/10/26 09:59:28;;;;;;;;;;;;;;;;;;136575;1282;22527;-80
2023/10/26 10:02:31;;;;;;;;;;;;;;;;;;136113;1282;22527;-80
2023/10/26 10:05:33;;;;;;;;;;;;;;;;;;136213;1282;22532;-78
2023/10/26 10:08:38;;;;;;;;;;;;;;;;;;136773;1282;22872;-79
2023/10/26 10:11:41;;;;;;;;;;;;;;;;;;136265;1282;22476;-80
2023/10/26 10:14:44;;;;;;;;;;;;;;;;;;136181;1276;22511;-79
2023/10/26 10:17:46;;;;;;;;;;;;;;;;;;137191;1277;22333;-78
2023/10/26 10:20:50;;;;;;;;;;;;;;;;;;137225;1277;22401;-80
2023/10/26 10:23:52;;;;;;;;;;;;;;;;;;137085;1278;22518;-79
2023/10/26 10:26:55;;;;;;;;;;;;;;;;;;137151;1277;22345;-80
2023/10/26 10:29:57;;;;;;;;;;;;;;;;;;137257;1274;22577;-80
2023/10/26 10:33:00;;;;;;;;;;;;;;;;;;137408;1274;22493;-79
2023/10/26 10:36:02;;;;;;;;;;;;;;;;;;137400;1274;22715;-79
2023/10/26 10:39:04;;;;;;;;;;;;;;;;;;137487;1275;22381;-80
2023/10/26 10:42:07;;;;;;;;;;;;;;;;;;137460;1274;23218;-79
2023/10/26 10:45:11;;;;;;;;;;;;;;;;;;137470;1274;22284;-80
2023/10/26 10:48:13;;;;;;;;;;;;;;;;;;137530;1273;23095;-80
2023/10/26 10:51:16;;;;;;;;;;;;;;;;;;137569;1273;23600;-80
2023/10/26 10:54:19;;;;;;;;;;;;;;;;;;137539;1273;22311;-79
2023/10/26 10:57:21;;;;;;;;;;;;;;;;;;137572;1273;22414;-80
2023/10/26 11:00:25;;;;;;;;;;;;;;;;;;137632;1273;22296;-80
2023/10/26 11:03:28;;;;;;;;;;;;;;;;;;137610;1273;22350;-79
2023/10/26 11:06:31;;;;;;;;;;;;;;;;;;137563;1273;22325;-80
2023/10/26 11:09:37;;;;;;;;;;;;;;;;;;137604;1273;22838;-79
2023/10/26 11:12:40;;;;;;;;;;;;;;;;;;137557;1273;22308;-80
2023/10/26 11:15:42;;;;;;;;;;;;;;;;;;137533;1273;22993;-79
2023/10/26 11:18:45;;;;;;;;;;;;;;;;;;137572;1273;22335;-79
2023/10/26 11:21:47;;;;;;;;;;;;;;;;;;137593;1273;23263;-79
2023/10/26 11:24:50;;;;;;;;;;;;;;;;;;137564;1273;22967;-79
2023/10/26 11:27:52;;;;;;;;;;;;;;;;;;137448;1273;22565;-79
2023/10/26 11:30:59;;;;;;;;;;;;;;;;;;137575;1273;22471;-81
2023/10/26 11:34:01;;;;;;;;;;;;;;;;;;137552;1273;22259;-79
2023/10/26 11:37:04;;;;;;;;;;;;;;;;;;137549;1273;22352;-79
2023/10/26 11:40:06;;;;;;;;;;;;;;;;;;137526;1273;23142;-80
2023/10/26 11:43:09;;;;;;;;;;;;;;;;;;137528;1273;22454;-79
2023/10/26 11:46:12;;;;;;;;;;;;;;;;;;137480;1266;22508;-80
2023/10/26 11:49:14;;;;;;;;;;;;;;;;;;137539;1273;22323;-79
2023/10/26 11:52:17;;;;;;;;;;;;;;;;;;137586;1273;22803;-81
2023/10/26 11:55:21;;;;;;;;;;;;;;;;;;137510;1273;22339;-80
2023/10/26 11:58:23;;;;;;;;;;;;;;;;;;137530;1273;22329;-79
2023/10/26 12:01:26;;;;;;;;;;;;;;;;;;137550;1273;22274;-79
2023/10/26 12:04:29;;;;;;;;;;;;;;;;;;137533;1273;22795;-79
2023/10/26 12:07:33;;;;;;;;;;;;;;;;;;137489;1273;22370;-79
2023/10/26 12:10:39;;;;;;;;;;;;;;;;;;137405;1273;22472;-77
2023/10/26 12:13:41;;;;;;;;;;;;;;;;;;137429;1273;22299;-77
2023/10/26 12:16:44;;;;;;;;;;;;;;;;;;137431;1250;22281;-80
2023/10/26 12:19:47;;;;;;;;;;;;;;;;;;137416;1273;22400;-80
2023/10/26 12:22:51;;;;;;;;;;;;;;;;;;137410;1266;22415;-80
2023/10/26 12:25:54;;;;;;;;;;;;;;;;;;137401;1273;22344;-79
2023/10/26 12:28:56;;;;;;;;;;;;;;;;;;137486;1273;22330;-80
2023/10/26 12:31:59;;;;;;;;;;;;;;;;;;137480;1273;22305;-80
2023/10/26 12:35:04;;;;;;;;;;;;;;;;;;137406;1273;22333;-80
2023/10/26 12:38:06;;;;;;;;;;;;;;;;;;137559;1273;22539;-80
2023/10/26 12:41:09;;;;;;;;;;;;;;;;;;137512;1273;22407;-81
2023/10/26 12:44:12;;;;;;;;;;;;;;;;;;137526;1272;22320;-81
2023/10/26 12:47:15;;;;;;;;;;;;;;;;;;137535;1273;22370;-82
2023/10/26 12:50:18;;;;;;;;;;;;;;;;;;137586;1273;22389;-82
2023/10/26 12:53:20;;;;;;;;;;;;;;;;;;137673;1273;22306;-81
2023/10/26 12:56:23;;;;;;;;;;;;;;;;;;137536;1269;22352;-81
2023/10/26 12:59:25;;;;;;;;;;;;;;;;;;137573;1273;22320;-81
2023/10/26 13:02:28;;;;;;;;;;;;;;;;;;137585;1273;22335;-80
2023/10/26 13:05:30;;;;;;;;;;;;;;;;;;137541;1273;22844;-80
2023/10/26 13:08:33;;;;;;;;;;;;;;;;;;137520;1273;22307;-82
2023/10/26 13:11:35;;;;;;;;;;;;;;;;;;137527;1273;22351;-82
2023/10/26 13:14:37;;;;;;;;;;;;;;;;;;137537;1273;22388;-80
2023/10/26 13:17:40;;;;;;;;;;;;;;;;;;137522;1273;22336;-81
2023/10/26 13:20:42;;;;;;;;;;;;;;;;;;137481;1273;22485;-80
2023/10/26 13:23:45;;;;;;;;;;;;;;;;;;137452;1273;22823;-82
2023/10/26 13:26:47;;;;;;;;;;;;;;;;;;137469;1273;23273;-80
2023/10/26 13:29:50;;;;;;;;;;;;;;;;;;137509;1273;22857;-81
2023/10/26 13:32:53;;;;;;;;;;;;;;;;;;137537;1273;22348;-81
2023/10/26 13:35:55;;;;;;;;;;;;;;;;;;137535;1273;22391;-80
2023/10/26 13:38:58;;;;;;;;;;;;;;;;;;137512;1273;22285;-80
2023/10/26 13:42:00;;;;;;;;;;;;;;;;;;137567;1273;22330;-82
2023/10/26 13:45:03;;;;;;;;;;;;;;;;;;137541;1273;22321;-81
2023/10/26 13:48:05;;;;;;;;;;;;;;;;;;137568;1273;22942;-82
2023/10/26 13:51:08;;;;;;;;;;;;;;;;;;137557;1273;22392;-82
2023/10/26 13:54:10;;;;;;;;;;;;;;;;;;137579;1273;22377;-80
2023/10/26 13:57:13;;;;;;;;;;;;;;;;;;137526;1273;22368;-81
2023/10/26 14:00:15;;;;;;;;;;;;;;;;;;137543;1273;22788;-80
2023/10/26 14:03:18;;;;;;;;;;;;;;;;;;137538;1273;22383;-82
2023/10/26 14:06:20;;;;;;;;;;;;;;;;;;137519;1273;22271;-82
2023/10/26 14:09:23;;;;;;;;;;;;;;;;;;137561;1273;22313;-83
2023/10/26 14:12:25;;;;;;;;;;;;;;;;;;137567;1273;22359;-83
2023/10/26 14:15:28;;;;;;;;;;;;;;;;;;137940;1270;22685;-83
2023/10/26 14:18:31;;;;;;;;;;;;;;;;;;137798;1270;22518;-83
2023/10/26 14:21:33;;;;;;;;;;;;;;;;;;137925;1270;23005;-84
2023/10/26 14:24:36;;;;;;;;;;;;;;;;;;137918;1270;22526;-86
2023/10/26 14:27:39;;;;;;;;;;;;;;;;;;137915;1270;22737;-84
2023/10/26 14:30:41;;;;;;;;;;;;;;;;;;137866;1270;22984;-84
2023/10/26 14:33:44;;;;;;;;;;;;;;;;;;137952;1270;22897;-82
2023/10/26 14:36:46;;;;;;;;;;;;;;;;;;137901;1270;22362;-85
2023/10/26 14:39:52;;;;;;;;;;;;;;;;;;137905;1270;22977;-85
2023/10/26 14:42:59;;;;;;;;;;;;;;;;;;137674;1270;22545;-84
2023/10/26 14:46:05;;;;;;;;;;;;;;;;;;137908;1270;22539;-83
2023/10/26 14:49:10;;;;;;;;;;;;;;;;;;137706;1270;22483;-84
2023/10/26 14:52:13;;;;;;;;;;;;;;;;;;137682;1270;25366;-83
2023/10/26 14:55:22;;;;;;;;;;;;;;;;;;137860;1266;22523;-84
